sensor_id;sensor_type;location;lat;lon;timestamp;pressure;altitude;pressure_sealevel;temperature;humidity
71966;BME280;59836;52.132;5.442;2022-10-17T00:01:58;101693.13;;;13.08;94.67
71966;BME280;59836;52.132;5.442;2022-10-17T00:04:24;101688.50;;;13.09;95.05
71966;BME280;59836;52.132;5.442;2022-10-17T00:06:55;101697.75;;;13.08;95.10
71966;BME280;59836;52.132;5.442;2022-10-17T00:09:21;101698.56;;;13.08;95.19
71966;BME280;59836;52.132;5.442;2022-10-17T00:11:47;101696.69;;;13.09;95.02
71966;BME280;59836;52.132;5.442;2022-10-17T00:14:18;101691.47;;;13.07;94.68
71966;BME280;59836;52.132;5.442;2022-10-17T00:16:44;101689.03;;;13.06;94.71
71966;BME280;59836;52.132;5.442;2022-10-17T00:19:11;101676.50;;;13.05;94.57
71966;BME280;59836;52.132;5.442;2022-10-17T00:21:37;101680.31;;;13.04;94.60
71966;BME280;59836;52.132;5.442;2022-10-17T00:34:45;101663.66;;;13.00;94.92
71966;BME280;59836;52.132;5.442;2022-10-17T00:37:12;101662.03;;;12.99;94.56
71966;BME280;59836;52.132;5.442;2022-10-17T00:39:39;101665.03;;;12.97;94.93
71966;BME280;59836;52.132;5.442;2022-10-17T00:42:12;101665.28;;;12.96;94.80
71966;BME280;59836;52.132;5.442;2022-10-17T00:47:30;101662.31;;;12.97;95.05
71966;BME280;59836;52.132;5.442;2022-10-17T00:49:59;101670.47;;;12.97;94.76
71966;BME280;59836;52.132;5.442;2022-10-17T00:52:27;101662.88;;;12.99;94.66
71966;BME280;59836;52.132;5.442;2022-10-17T00:55:01;101650.34;;;12.98;94.85
71966;BME280;59836;52.132;5.442;2022-10-17T00:57:30;101656.88;;;12.97;94.85
71966;BME280;59836;52.132;5.442;2022-10-17T00:59:59;101653.31;;;12.97;95.09
71966;BME280;59836;52.132;5.442;2022-10-17T01:02:27;101656.88;;;12.97;94.89
71966;BME280;59836;52.132;5.442;2022-10-17T01:04:55;101657.13;;;12.96;95.03
71966;BME280;59836;52.132;5.442;2022-10-17T01:07:22;101660.13;;;12.94;95.33
71966;BME280;59836;52.132;5.442;2022-10-17T01:09:48;101663.41;;;12.96;95.09
71966;BME280;59836;52.132;5.442;2022-10-17T01:17:54;101638.34;;;12.94;95.26
71966;BME280;59836;52.132;5.442;2022-10-17T01:24:21;101633.97;;;12.93;95.01
71966;BME280;59836;52.132;5.442;2022-10-17T01:30:12;101638.59;;;12.93;95.12
71966;BME280;59836;52.132;5.442;2022-10-17T01:32:52;101624.97;;;12.93;95.11
71966;BME280;59836;52.132;5.442;2022-10-17T01:35:29;101634.22;;;12.92;95.30
71966;BME280;59836;52.132;5.442;2022-10-17T01:38:19;101627.97;;;12.91;95.13
71966;BME280;59836;52.132;5.442;2022-10-17T01:40:54;101635.06;;;12.92;94.97
71966;BME280;59836;52.132;5.442;2022-10-17T01:43:40;101631.78;;;12.90;95.42
71966;BME280;59836;52.132;5.442;2022-10-17T01:46:20;101636.38;;;12.90;95.25
71966;BME280;59836;52.132;5.442;2022-10-17T01:48:52;101632.59;;;12.91;95.18
71966;BME280;59836;52.132;5.442;2022-10-17T01:51:37;101622.53;;;12.91;95.37
71966;BME280;59836;52.132;5.442;2022-10-17T01:54:10;101620.88;;;12.90;95.02
71966;BME280;59836;52.132;5.442;2022-10-17T01:56:57;101623.34;;;12.92;95.41
71966;BME280;59836;52.132;5.442;2022-10-17T01:59:29;101617.88;;;12.92;95.02
71966;BME280;59836;52.132;5.442;2022-10-17T02:01:58;101608.91;;;12.91;95.04
71966;BME280;59836;52.132;5.442;2022-10-17T02:04:25;101599.66;;;12.92;94.95
71966;BME280;59836;52.132;5.442;2022-10-17T02:06:51;101587.94;;;12.92;95.08
71966;BME280;59836;52.132;5.442;2022-10-17T02:09:23;101581.69;;;12.91;94.95
71966;BME280;59836;52.132;5.442;2022-10-17T02:21:32;101583.88;;;12.94;95.43
71966;BME280;59836;52.132;5.442;2022-10-17T02:24:13;101577.59;;;12.94;95.43
71966;BME280;59836;52.132;5.442;2022-10-17T02:29:35;101567.53;;;12.94;95.21
71966;BME280;59836;52.132;5.442;2022-10-17T02:32:09;101572.44;;;12.97;95.48
71966;BME280;59836;52.132;5.442;2022-10-17T02:34:46;101574.63;;;13.01;95.45
71966;BME280;59836;52.132;5.442;2022-10-17T02:37:18;101573.28;;;13.03;95.68
71966;BME280;59836;52.132;5.442;2022-10-17T02:39:49;101574.66;;;13.06;95.93
71966;BME280;59836;52.132;5.442;2022-10-17T02:42:17;101570.84;;;13.07;95.99
71966;BME280;59836;52.132;5.442;2022-10-17T02:44:44;101568.38;;;13.10;96.11
71966;BME280;59836;52.132;5.442;2022-10-17T02:49:58;101559.44;;;13.15;96.42
71966;BME280;59836;52.132;5.442;2022-10-17T02:52:46;101561.06;;;13.16;96.58
71966;BME280;59836;52.132;5.442;2022-10-17T02:55:23;101565.69;;;13.21;96.71
71966;BME280;59836;52.132;5.442;2022-10-17T02:57:58;101572.78;;;13.22;96.83
71966;BME280;59836;52.132;5.442;2022-10-17T03:00:27;101575.25;;;13.23;96.48
71966;BME280;59836;52.132;5.442;2022-10-17T03:02:54;101570.59;;;13.24;96.17
71966;BME280;59836;52.132;5.442;2022-10-17T03:05:31;101571.44;;;13.24;96.43
71966;BME280;59836;52.132;5.442;2022-10-17T03:07:57;101580.13;;;13.26;96.29
71966;BME280;59836;52.132;5.442;2022-10-17T03:10:24;101578.78;;;13.29;96.75
71966;BME280;59836;52.132;5.442;2022-10-17T03:12:58;101574.16;;;13.35;96.96
71966;BME280;59836;52.132;5.442;2022-10-17T03:15:42;101573.88;;;13.36;96.74
71966;BME280;59836;52.132;5.442;2022-10-17T03:18:17;101575.78;;;13.41;96.82
71966;BME280;59836;52.132;5.442;2022-10-17T03:20:44;101570.34;;;13.41;97.01
71966;BME280;59836;52.132;5.442;2022-10-17T03:23:10;101575.81;;;13.46;96.88
71966;BME280;59836;52.132;5.442;2022-10-17T03:25:36;101574.19;;;13.50;97.09
71966;BME280;59836;52.132;5.442;2022-10-17T03:28:03;101570.13;;;13.53;96.95
71966;BME280;59836;52.132;5.442;2022-10-17T03:30:31;101572.31;;;13.56;97.04
71966;BME280;59836;52.132;5.442;2022-10-17T03:32:58;101572.03;;;13.57;96.96
71966;BME280;59836;52.132;5.442;2022-10-17T03:35:25;101575.28;;;13.60;96.85
71966;BME280;59836;52.132;5.442;2022-10-17T03:37:54;101581.28;;;13.62;96.98
71966;BME280;59836;52.132;5.442;2022-10-17T03:40:21;101583.47;;;13.65;97.00
71966;BME280;59836;52.132;5.442;2022-10-17T03:42:50;101574.75;;;13.68;96.91
71966;BME280;59836;52.132;5.442;2022-10-17T03:45:29;101571.78;;;13.69;97.01
71966;BME280;59836;52.132;5.442;2022-10-17T03:47:57;101582.38;;;13.71;97.07
71966;BME280;59836;52.132;5.442;2022-10-17T03:53:29;101591.13;;;13.78;97.21
71966;BME280;59836;52.132;5.442;2022-10-17T03:59:17;101589.19;;;13.84;97.50
71966;BME280;59836;52.132;5.442;2022-10-17T04:01:43;101584.81;;;13.88;97.21
71966;BME280;59836;52.132;5.442;2022-10-17T04:04:10;101586.75;;;13.87;97.21
71966;BME280;59836;52.132;5.442;2022-10-17T04:06:36;101577.75;;;13.87;97.13
71966;BME280;59836;52.132;5.442;2022-10-17T04:09:05;101576.94;;;13.86;97.04
71966;BME280;59836;52.132;5.442;2022-10-17T04:11:32;101571.47;;;13.86;96.72
71966;BME280;59836;52.132;5.442;2022-10-17T04:13:59;101575.31;;;13.85;96.50
71966;BME280;59836;52.132;5.442;2022-10-17T04:16:26;101584.56;;;13.84;96.38
71966;BME280;59836;52.132;5.442;2022-10-17T04:18:56;101584.56;;;13.84;96.41
71966;BME280;59836;52.132;5.442;2022-10-17T04:21:25;101584.03;;;13.87;96.98
71966;BME280;59836;52.132;5.442;2022-10-17T04:23:53;101591.66;;;13.85;96.41
71966;BME280;59836;52.132;5.442;2022-10-17T04:26:22;101602.03;;;13.83;96.61
71966;BME280;59836;52.132;5.442;2022-10-17T04:28:52;101597.13;;;13.85;96.64
71966;BME280;59836;52.132;5.442;2022-10-17T04:31:22;101609.09;;;13.84;96.91
71966;BME280;59836;52.132;5.442;2022-10-17T04:33:49;101590.56;;;13.81;96.65
71966;BME280;59836;52.132;5.442;2022-10-17T04:36:17;101596.81;;;13.82;96.66
71966;BME280;59836;52.132;5.442;2022-10-17T04:38:51;101594.66;;;13.84;96.92
71966;BME280;59836;52.132;5.442;2022-10-17T04:41:32;101599.84;;;13.85;96.51
71966;BME280;59836;52.132;5.442;2022-10-17T04:44:01;101599.56;;;13.87;96.79
71966;BME280;59836;52.132;5.442;2022-10-17T04:46:28;101607.47;;;13.88;96.36
71966;BME280;59836;52.132;5.442;2022-10-17T04:48:54;101615.38;;;13.90;96.79
71966;BME280;59836;52.132;5.442;2022-10-17T04:51:37;101617.84;;;13.92;96.59
71966;BME280;59836;52.132;5.442;2022-10-17T04:54:09;101626.28;;;13.95;96.25
71966;BME280;59836;52.132;5.442;2022-10-17T04:56:35;101626.28;;;14.00;96.97
71966;BME280;59836;52.132;5.442;2022-10-17T04:59:02;101623.28;;;14.02;96.94
71966;BME280;59836;52.132;5.442;2022-10-17T05:01:36;101616.44;;;14.05;97.36
71966;BME280;59836;52.132;5.442;2022-10-17T05:04:02;101626.00;;;14.07;97.74
71966;BME280;59836;52.132;5.442;2022-10-17T05:06:29;101620.81;;;14.11;97.46
71966;BME280;59836;52.132;5.442;2022-10-17T05:08:58;101626.56;;;14.14;97.24
71966;BME280;59836;52.132;5.442;2022-10-17T05:11:27;101626.56;;;14.14;97.10
71966;BME280;59836;52.132;5.442;2022-10-17T05:13:57;101630.09;;;14.15;97.12
71966;BME280;59836;52.132;5.442;2022-10-17T05:16:48;101632.56;;;14.16;97.24
71966;BME280;59836;52.132;5.442;2022-10-17T05:19:21;101630.63;;;14.17;97.32
71966;BME280;59836;52.132;5.442;2022-10-17T05:22:16;101626.56;;;14.20;97.18
71966;BME280;59836;52.132;5.442;2022-10-17T05:24:42;101627.09;;;14.22;97.55
71966;BME280;59836;52.132;5.442;2022-10-17T05:27:41;101625.16;;;14.22;97.18
71966;BME280;59836;52.132;5.442;2022-10-17T05:30:33;101624.91;;;14.24;97.31
71966;BME280;59836;52.132;5.442;2022-10-17T05:33:34;101629.81;;;14.27;97.65
71966;BME280;59836;52.132;5.442;2022-10-17T05:36:00;101645.09;;;14.28;97.36
71966;BME280;59836;52.132;5.442;2022-10-17T05:38:33;101637.44;;;14.30;97.69
71966;BME280;59836;52.132;5.442;2022-10-17T05:41:01;101641.78;;;14.31;97.46
71966;BME280;59836;52.132;5.442;2022-10-17T05:43:30;101644.50;;;14.31;97.28
71966;BME280;59836;52.132;5.442;2022-10-17T05:45:57;101650.50;;;14.33;98.02
71966;BME280;59836;52.132;5.442;2022-10-17T05:48:23;101657.59;;;14.34;98.03
71966;BME280;59836;52.132;5.442;2022-10-17T05:51:08;101651.59;;;14.37;97.77
71966;BME280;59836;52.132;5.442;2022-10-17T05:53:40;101639.34;;;14.35;97.98
71966;BME280;59836;52.132;5.442;2022-10-17T05:56:13;101639.88;;;14.37;97.51
71966;BME280;59836;52.132;5.442;2022-10-17T05:58:50;101651.59;;;14.37;97.50
71966;BME280;59836;52.132;5.442;2022-10-17T06:01:23;101636.88;;;14.38;97.70
71966;BME280;59836;52.132;5.442;2022-10-17T06:03:50;101631.41;;;14.38;97.43
71966;BME280;59836;52.132;5.442;2022-10-17T06:06:17;101636.88;;;14.38;97.60
71966;BME280;59836;52.132;5.442;2022-10-17T06:08:50;101634.69;;;14.40;97.57
71966;BME280;59836;52.132;5.442;2022-10-17T06:11:23;101648.88;;;14.42;97.72
71966;BME280;59836;52.132;5.442;2022-10-17T06:13:50;101638.78;;;14.43;97.66
71966;BME280;59836;52.132;5.442;2022-10-17T06:16:17;101654.88;;;14.44;97.73
71966;BME280;59836;52.132;5.442;2022-10-17T06:18:43;101653.78;;;14.45;98.04
71966;BME280;59836;52.132;5.442;2022-10-17T06:21:11;101639.88;;;14.47;97.92
71966;BME280;59836;52.132;5.442;2022-10-17T06:23:39;101642.84;;;14.45;97.82
71966;BME280;59836;52.132;5.442;2022-10-17T06:26:06;101647.22;;;14.46;97.75
71966;BME280;59836;52.132;5.442;2022-10-17T06:28:33;101649.94;;;14.46;97.96
71966;BME280;59836;52.132;5.442;2022-10-17T06:31:10;101667.41;;;14.51;97.52
71966;BME280;59836;52.132;5.442;2022-10-17T06:33:37;101667.94;;;14.53;97.48
71966;BME280;59836;52.132;5.442;2022-10-17T06:36:05;101680.50;;;14.54;97.48
71966;BME280;59836;52.132;5.442;2022-10-17T06:38:33;101684.06;;;14.54;98.04
71966;BME280;59836;52.132;5.442;2022-10-17T06:41:11;101683.25;;;14.54;97.95
71966;BME280;59836;52.132;5.442;2022-10-17T06:43:41;101679.16;;;14.56;97.72
71966;BME280;59836;52.132;5.442;2022-10-17T06:46:18;101678.88;;;14.58;97.61
71966;BME280;59836;52.132;5.442;2022-10-17T06:48:44;101688.69;;;14.59;97.21
71966;BME280;59836;52.132;5.442;2022-10-17T06:51:18;101686.25;;;14.63;97.90
71966;BME280;59836;52.132;5.442;2022-10-17T06:53:44;101688.69;;;14.64;97.99
71966;BME280;59836;52.132;5.442;2022-10-17T06:56:11;101701.25;;;14.65;97.50
71966;BME280;59836;52.132;5.442;2022-10-17T06:58:38;101709.97;;;14.67;97.38
71966;BME280;59836;52.132;5.442;2022-10-17T07:01:10;101705.09;;;14.69;97.62
71966;BME280;59836;52.132;5.442;2022-10-17T07:03:38;101708.66;;;14.70;97.60
71966;BME280;59836;52.132;5.442;2022-10-17T07:06:05;101710.28;;;14.71;97.65
71966;BME280;59836;52.132;5.442;2022-10-17T07:08:31;101712.72;;;14.72;97.83
71966;BME280;59836;52.132;5.442;2022-10-17T07:10:58;101709.72;;;14.74;97.88
71966;BME280;59836;52.132;5.442;2022-10-17T07:13:24;101716.81;;;14.75;97.63
71966;BME280;59836;52.132;5.442;2022-10-17T07:15:51;101718.47;;;14.76;97.76
71966;BME280;59836;52.132;5.442;2022-10-17T07:18:17;101723.63;;;14.78;97.72
71966;BME280;59836;52.132;5.442;2022-10-17T07:20:52;101724.19;;;14.80;98.01
71966;BME280;59836;52.132;5.442;2022-10-17T07:23:19;101719.56;;;14.80;97.42
71966;BME280;59836;52.132;5.442;2022-10-17T07:25:45;101725.81;;;14.81;98.02
71966;BME280;59836;52.132;5.442;2022-10-17T07:28:13;101722.81;;;14.82;97.70
71966;BME280;59836;52.132;5.442;2022-10-17T07:30:40;101716.53;;;14.82;97.28
71966;BME280;59836;52.132;5.442;2022-10-17T07:33:06;101718.16;;;14.83;97.48
71966;BME280;59836;52.132;5.442;2022-10-17T07:35:33;101710.50;;;14.85;97.24
71966;BME280;59836;52.132;5.442;2022-10-17T07:37:59;101717.59;;;14.86;97.48
71966;BME280;59836;52.132;5.442;2022-10-17T07:40:26;101730.97;;;14.87;97.58
71966;BME280;59836;52.132;5.442;2022-10-17T07:42:52;101737.81;;;14.90;97.80
71966;BME280;59836;52.132;5.442;2022-10-17T07:45:21;101731.25;;;14.91;97.98
71966;BME280;59836;52.132;5.442;2022-10-17T07:47:48;101726.59;;;14.91;97.70
71966;BME280;59836;52.132;5.442;2022-10-17T07:50:15;101749.28;;;14.92;97.55
71966;BME280;59836;52.132;5.442;2022-10-17T07:52:41;101749.28;;;14.92;97.42
71966;BME280;59836;52.132;5.442;2022-10-17T07:55:08;101754.75;;;14.92;97.42
71966;BME280;59836;52.132;5.442;2022-10-17T07:57:35;101776.03;;;14.95;97.29
71966;BME280;59836;52.132;5.442;2022-10-17T08:00:01;101816.19;;;14.95;97.35
71966;BME280;59836;52.132;5.442;2022-10-17T08:02:28;101846.53;;;14.93;97.41
71966;BME280;59836;52.132;5.442;2022-10-17T08:04:55;101860.19;;;14.93;97.66
71966;BME280;59836;52.132;5.442;2022-10-17T08:07:21;101875.19;;;14.96;97.46
71966;BME280;59836;52.132;5.442;2022-10-17T08:09:53;101880.66;;;14.96;97.82
71966;BME280;59836;52.132;5.442;2022-10-17T08:12:20;101877.13;;;14.95;97.81
71966;BME280;59836;52.132;5.442;2022-10-17T08:14:47;101880.38;;;14.97;98.00
71966;BME280;59836;52.132;5.442;2022-10-17T08:17:13;101890.22;;;14.98;98.37
71966;BME280;59836;52.132;5.442;2022-10-17T08:19:40;101894.59;;;14.99;98.66
71966;BME280;59836;52.132;5.442;2022-10-17T08:22:07;101897.88;;;15.01;98.85
71966;BME280;59836;52.132;5.442;2022-10-17T08:24:33;101874.94;;;15.02;98.77
71966;BME280;59836;52.132;5.442;2022-10-17T08:27:00;101865.63;;;15.03;98.92
71966;BME280;59836;52.132;5.442;2022-10-17T08:29:26;101860.16;;;15.03;99.25
71966;BME280;59836;52.132;5.442;2022-10-17T08:31:53;101866.19;;;15.05;99.22
71966;BME280;59836;52.132;5.442;2022-10-17T08:34:31;101865.09;;;15.07;99.07
71966;BME280;59836;52.132;5.442;2022-10-17T08:37:12;101873.81;;;15.09;99.19
71966;BME280;59836;52.132;5.442;2022-10-17T08:39:44;101879.84;;;15.11;99.50
71966;BME280;59836;52.132;5.442;2022-10-17T08:45:19;101919.72;;;15.17;99.68
71966;BME280;59836;52.132;5.442;2022-10-17T08:48:00;101928.47;;;15.19;99.36
71966;BME280;59836;52.132;5.442;2022-10-17T08:50:34;101934.47;;;15.21;99.92
71966;BME280;59836;52.132;5.442;2022-10-17T08:53:17;101953.88;;;15.25;99.74
71966;BME280;59836;52.132;5.442;2022-10-17T08:55:47;101959.63;;;15.28;99.81
71966;BME280;59836;52.132;5.442;2022-10-17T08:58:20;101956.06;;;15.28;99.81
71966;BME280;59836;52.132;5.442;2022-10-17T09:06:25;101904.41;;;15.31;99.57
71966;BME280;59836;52.132;5.442;2022-10-17T09:09:12;101889.66;;;15.32;99.89
71966;BME280;59836;52.132;5.442;2022-10-17T09:19:34;101860.13;;;15.34;99.90
71966;BME280;59836;52.132;5.442;2022-10-17T09:22:05;101866.13;;;15.37;99.98
71966;BME280;59836;52.132;5.442;2022-10-17T09:24:49;101865.56;;;15.40;99.97
71966;BME280;59836;52.132;5.442;2022-10-17T09:27:33;101873.75;;;15.40;99.91
71966;BME280;59836;52.132;5.442;2022-10-17T09:30:19;101884.13;;;15.43;99.95
71966;BME280;59836;52.132;5.442;2022-10-17T09:33:10;101909.56;;;15.43;99.93
71966;BME280;59836;52.132;5.442;2022-10-17T09:35:58;101919.66;;;15.43;99.65
71966;BME280;59836;52.132;5.442;2022-10-17T09:38:33;101933.34;;;15.43;99.79
71966;BME280;59836;52.132;5.442;2022-10-17T09:41:01;101942.38;;;15.43;99.73
71966;BME280;59836;52.132;5.442;2022-10-17T09:43:28;101931.16;;;15.45;99.79
71966;BME280;59836;52.132;5.442;2022-10-17T09:46:16;101926.22;;;15.47;99.74
71966;BME280;59836;52.132;5.442;2022-10-17T09:48:50;101899.97;;;15.46;99.77
71966;BME280;59836;52.132;5.442;2022-10-17T09:51:19;101882.50;;;15.47;99.87
71966;BME280;59836;52.132;5.442;2022-10-17T09:53:56;101888.50;;;15.49;99.88
71966;BME280;59836;52.132;5.442;2022-10-17T09:56:25;101892.06;;;15.49;99.93
71966;BME280;59836;52.132;5.442;2022-10-17T09:58:55;101898.06;;;15.52;99.83
71966;BME280;59836;52.132;5.442;2022-10-17T10:01:27;101893.41;;;15.52;100.00
71966;BME280;59836;52.132;5.442;2022-10-17T10:04:10;101896.69;;;15.54;99.87
71966;BME280;59836;52.132;5.442;2022-10-17T10:06:37;101904.63;;;15.56;100.00
71966;BME280;59836;52.132;5.442;2022-10-17T10:09:05;101927.59;;;15.60;100.00
71966;BME280;59836;52.132;5.442;2022-10-17T10:11:54;101936.03;;;15.63;100.00
71966;BME280;59836;52.132;5.442;2022-10-17T10:14:27;101932.22;;;15.64;100.00
71966;BME280;59836;52.132;5.442;2022-10-17T10:16:54;101944.25;;;15.63;100.00
71966;BME280;59836;52.132;5.442;2022-10-17T10:19:31;101947.53;;;15.65;100.00
71966;BME280;59836;52.132;5.442;2022-10-17T10:22:02;101961.19;;;15.65;99.95
71966;BME280;59836;52.132;5.442;2022-10-17T10:24:28;101974.31;;;15.69;99.98
71966;BME280;59836;52.132;5.442;2022-10-17T10:26:59;101991.28;;;15.71;100.00
71966;BME280;59836;52.132;5.442;2022-10-17T10:29:42;101994.84;;;15.71;100.00
71966;BME280;59836;52.132;5.442;2022-10-17T10:32:26;102001.13;;;15.72;100.00
71966;BME280;59836;52.132;5.442;2022-10-17T10:35:15;102006.59;;;15.72;100.00
71966;BME280;59836;52.132;5.442;2022-10-17T10:37:48;102003.84;;;15.72;100.00
71966;BME280;59836;52.132;5.442;2022-10-17T10:40:35;102005.78;;;15.71;100.00
71966;BME280;59836;52.132;5.442;2022-10-17T10:43:04;102014.25;;;15.70;100.00
71966;BME280;59836;52.132;5.442;2022-10-17T10:48:23;102012.91;;;15.72;100.00
71966;BME280;59836;52.132;5.442;2022-10-17T10:56:19;102009.84;;;15.79;100.00
71966;BME280;59836;52.132;5.442;2022-10-17T10:59:21;102019.72;;;15.80;100.00
71966;BME280;59836;52.132;5.442;2022-10-17T11:02:14;102030.66;;;15.80;100.00
71966;BME280;59836;52.132;5.442;2022-10-17T11:04:58;102029.56;;;15.81;100.00
71966;BME280;59836;52.132;5.442;2022-10-17T11:07:59;102031.75;;;15.84;100.00
71966;BME280;59836;52.132;5.442;2022-10-17T11:11:05;102037.53;;;15.88;100.00
71966;BME280;59836;52.132;5.442;2022-10-17T11:13:43;102045.16;;;15.91;100.00
71966;BME280;59836;52.132;5.442;2022-10-17T11:16:36;102043.25;;;15.91;100.00
71966;BME280;59836;52.132;5.442;2022-10-17T11:22:15;102042.69;;;15.94;100.00
71966;BME280;59836;52.132;5.442;2022-10-17T11:25:19;102057.72;;;15.97;100.00
71966;BME280;59836;52.132;5.442;2022-10-17T11:27:47;102052.25;;;15.97;100.00
71966;BME280;59836;52.132;5.442;2022-10-17T11:30:14;102064.03;;;15.98;100.00
71966;BME280;59836;52.132;5.442;2022-10-17T11:32:45;102062.38;;;15.97;100.00
71966;BME280;59836;52.132;5.442;2022-10-17T11:35:19;102073.34;;;15.97;100.00
71966;BME280;59836;52.132;5.442;2022-10-17T11:38:05;102076.88;;;15.97;100.00
71966;BME280;59836;52.132;5.442;2022-10-17T11:40:35;102081.25;;;15.93;100.00
71966;BME280;59836;52.132;5.442;2022-10-17T11:43:20;102094.13;;;15.92;100.00
71966;BME280;59836;52.132;5.442;2022-10-17T11:45:53;102087.81;;;15.92;100.00
71966;BME280;59836;52.132;5.442;2022-10-17T11:48:24;102083.75;;;15.89;100.00
71966;BME280;59836;52.132;5.442;2022-10-17T11:51:10;102093.03;;;15.88;100.00
71966;BME280;59836;52.132;5.442;2022-10-17T11:54:15;102098.50;;;15.88;100.00
71966;BME280;59836;52.132;5.442;2022-10-17T12:06:10;102090.56;;;15.97;100.00
71966;BME280;59836;52.132;5.442;2022-10-17T12:08:51;102083.72;;;16.00;100.00
71966;BME280;59836;52.132;5.442;2022-10-17T12:17:34;102086.47;;;16.05;100.00
71966;BME280;59836;52.132;5.442;2022-10-17T12:23:19;102091.94;;;16.10;100.00
71966;BME280;59836;52.132;5.442;2022-10-17T12:26:07;102090.84;;;16.11;100.00
71966;BME280;59836;52.132;5.442;2022-10-17T12:28:45;102097.41;;;16.10;100.00
71966;BME280;59836;52.132;5.442;2022-10-17T12:33:51;102101.50;;;16.07;100.00
71966;BME280;59836;52.132;5.442;2022-10-17T12:49:47;102114.91;;;16.09;100.00
71966;BME280;59836;52.132;5.442;2022-10-17T12:54:59;102125.31;;;16.07;100.00
71966;BME280;59836;52.132;5.442;2022-10-17T12:57:52;102131.88;;;16.06;100.00
71966;BME280;59836;52.132;5.442;2022-10-17T13:00:45;102123.69;;;16.06;100.00
71966;BME280;59836;52.132;5.442;2022-10-17T13:03:42;102132.16;;;16.04;100.00
71966;BME280;59836;52.132;5.442;2022-10-17T13:06:21;102134.06;;;16.04;100.00
71966;BME280;59836;52.132;5.442;2022-10-17T13:12:22;102137.91;;;16.03;100.00
71966;BME280;59836;52.132;5.442;2022-10-17T13:14:51;102143.94;;;16.05;100.00
71966;BME280;59836;52.132;5.442;2022-10-17T13:17:26;102146.13;;;16.08;100.00
71966;BME280;59836;52.132;5.442;2022-10-17T13:20:01;102147.75;;;16.09;100.00
71966;BME280;59836;52.132;5.442;2022-10-17T13:22:31;102158.69;;;16.09;100.00
71966;BME280;59836;52.132;5.442;2022-10-17T13:25:15;102158.69;;;16.09;100.00
71966;BME280;59836;52.132;5.442;2022-10-17T13:31:42;102168.56;;;16.10;100.00
71966;BME280;59836;52.132;5.442;2022-10-17T13:34:40;102173.75;;;16.12;100.00
71966;BME280;59836;52.132;5.442;2022-10-17T13:37:09;102192.63;;;16.13;100.00
71966;BME280;59836;52.132;5.442;2022-10-17T13:39:40;102193.72;;;16.12;100.00
71966;BME280;59836;52.132;5.442;2022-10-17T13:42:24;102189.91;;;16.13;100.00
71966;BME280;59836;52.132;5.442;2022-10-17T13:44:53;102193.19;;;16.15;100.00
71966;BME280;59836;52.132;5.442;2022-10-17T13:47:26;102203.59;;;16.18;100.00
71966;BME280;59836;52.132;5.442;2022-10-17T13:50:19;102204.13;;;16.20;100.00
71966;BME280;59836;52.132;5.442;2022-10-17T13:58:57;102221.09;;;16.22;100.00
71966;BME280;59836;52.132;5.442;2022-10-17T14:01:27;102226.03;;;16.20;99.87
71966;BME280;59836;52.132;5.442;2022-10-17T14:03:54;102224.94;;;16.21;99.96
71966;BME280;59836;52.132;5.442;2022-10-17T14:06:40;102226.03;;;16.20;99.80
71966;BME280;59836;52.132;5.442;2022-10-17T14:09:23;102226.84;;;16.21;99.89
71966;BME280;59836;52.132;5.442;2022-10-17T14:12:08;102223.00;;;16.22;99.88
71966;BME280;59836;52.132;5.442;2022-10-17T14:14:39;102224.09;;;16.21;99.79
71966;BME280;59836;52.132;5.442;2022-10-17T14:17:27;102221.38;;;16.21;99.84
71966;BME280;59836;52.132;5.442;2022-10-17T14:19:58;102224.66;;;16.23;99.84
71966;BME280;59836;52.132;5.442;2022-10-17T14:22:48;102220.00;;;16.23;99.83
71966;BME280;59836;52.132;5.442;2022-10-17T14:25:38;102223.84;;;16.22;99.79
71966;BME280;59836;52.132;5.442;2022-10-17T14:30:46;102219.19;;;16.23;99.65
71966;BME280;59836;52.132;5.442;2022-10-17T14:33:26;102210.72;;;16.25;99.64
71966;BME280;59836;52.132;5.442;2022-10-17T14:35:55;102213.16;;;16.26;99.53
71966;BME280;59836;52.132;5.442;2022-10-17T14:38:22;102210.16;;;16.28;99.60
71966;BME280;59836;52.132;5.442;2022-10-17T14:40:59;102218.38;;;16.28;99.68
71966;BME280;59836;52.132;5.442;2022-10-17T14:43:55;102229.03;;;16.29;99.52
71966;BME280;59836;52.132;5.442;2022-10-17T14:46:22;102223.00;;;16.32;99.40
71966;BME280;59836;52.132;5.442;2022-10-17T14:48:54;102214.53;;;16.34;99.37
71966;BME280;59836;52.132;5.442;2022-10-17T14:51:21;102223.56;;;16.34;99.31
71966;BME280;59836;52.132;5.442;2022-10-17T14:54:03;102226.03;;;16.36;99.45
71966;BME280;59836;52.132;5.442;2022-10-17T14:56:54;102224.09;;;16.36;99.21
71966;BME280;59836;52.132;5.442;2022-10-17T14:59:21;102229.88;;;16.35;99.09
71966;BME280;59836;52.132;5.442;2022-10-17T15:02:09;102225.47;;;16.34;98.96
71966;BME280;59836;52.132;5.442;2022-10-17T15:04:38;102224.66;;;16.33;98.76
71966;BME280;59836;52.132;5.442;2022-10-17T15:07:20;102240.81;;;16.30;98.94
71966;BME280;59836;52.132;5.442;2022-10-17T15:09:49;102257.78;;;16.27;98.81
71966;BME280;59836;52.132;5.442;2022-10-17T15:12:20;102259.16;;;16.24;99.03
71966;BME280;59836;52.132;5.442;2022-10-17T15:14:47;102255.84;;;16.22;98.85
71966;BME280;59836;52.132;5.442;2022-10-17T15:24:05;102266.81;;;16.22;98.91
71966;BME280;59836;52.132;5.442;2022-10-17T15:29:58;102268.44;;;16.18;99.11
71966;BME280;59836;52.132;5.442;2022-10-17T15:32:26;102264.91;;;16.17;98.75
71966;BME280;59836;52.132;5.442;2022-10-17T15:34:53;102266.00;;;16.16;98.89
71966;BME280;59836;52.132;5.442;2022-10-17T15:37:23;102275.56;;;16.14;98.86
71966;BME280;59836;52.132;5.442;2022-10-17T15:39:52;102279.13;;;16.14;99.12